sensor_id;sensor_type;location;lat;lon;timestamp;temperature;humidity
23259;DHT22;11798;51.528;7.240;2023-02-15T00:00:11;3.70;99.90
23259;DHT22;11798;51.528;7.240;2023-02-15T00:02:37;3.60;99.90
23259;DHT22;11798;51.528;7.240;2023-02-15T00:05:03;3.60;99.90
23259;DHT22;11798;51.528;7.240;2023-02-15T00:07:29;3.50;99.90
23259;DHT22;11798;51.528;7.240;2023-02-15T00:09:55;3.40;99.90
23259;DHT22;11798;51.528;7.240;2023-02-15T00:12:20;3.40;99.90
23259;DHT22;11798;51.528;7.240;2023-02-15T00:14:47;3.40;99.90
23259;DHT22;11798;51.528;7.240;2023-02-15T00:17:13;3.40;99.90
23259;DHT22;11798;51.528;7.240;2023-02-15T00:19:39;3.40;99.90
23259;DHT22;11798;51.528;7.240;2023-02-15T00:22:05;3.50;99.90
23259;DHT22;11798;51.528;7.240;2023-02-15T00:24:31;3.40;99.90
23259;DHT22;11798;51.528;7.240;2023-02-15T00:26:57;3.40;99.90
23259;DHT22;11798;51.528;7.240;2023-02-15T00:29:22;3.20;99.90
23259;DHT22;11798;51.528;7.240;2023-02-15T00:31:48;3.20;99.90
23259;DHT22;11798;51.528;7.240;2023-02-15T00:34:20;3.30;99.90
23259;DHT22;11798;51.528;7.240;2023-02-15T00:36:46;3.30;99.90
23259;DHT22;11798;51.528;7.240;2023-02-15T00:39:12;3.30;99.90
23259;DHT22;11798;51.528;7.240;2023-02-15T00:41:37;3.30;99.90
23259;DHT22;11798;51.528;7.240;2023-02-15T00:44:04;3.30;99.90
23259;DHT22;11798;51.528;7.240;2023-02-15T00:46:30;3.20;99.90
23259;DHT22;11798;51.528;7.240;2023-02-15T00:48:56;3.30;99.90
23259;DHT22;11798;51.528;7.240;2023-02-15T00:51:22;3.30;99.90
23259;DHT22;11798;51.528;7.240;2023-02-15T00:53:48;3.30;99.90
23259;DHT22;11798;51.528;7.240;2023-02-15T00:56:14;3.30;99.90
23259;DHT22;11798;51.528;7.240;2023-02-15T00:58:39;3.30;99.90
23259;DHT22;11798;51.528;7.240;2023-02-15T01:01:10;3.30;99.90
23259;DHT22;11798;51.528;7.240;2023-02-15T01:03:37;3.20;99.90
23259;DHT22;11798;51.528;7.240;2023-02-15T01:06:03;3.10;99.90
23259;DHT22;11798;51.528;7.240;2023-02-15T01:08:30;3.10;99.90
23259;DHT22;11798;51.528;7.240;2023-02-15T01:10:56;3.10;99.90
23259;DHT22;11798;51.528;7.240;2023-02-15T01:13:22;3.00;99.90
23259;DHT22;11798;51.528;7.240;2023-02-15T01:15:55;3.00;99.90
23259;DHT22;11798;51.528;7.240;2023-02-15T01:18:21;2.90;99.90
23259;DHT22;11798;51.528;7.240;2023-02-15T01:20:47;2.80;99.90
23259;DHT22;11798;51.528;7.240;2023-02-15T01:23:13;2.90;99.90
23259;DHT22;11798;51.528;7.240;2023-02-15T01:25:39;3.00;99.90
23259;DHT22;11798;51.528;7.240;2023-02-15T01:28:05;2.90;99.90
23259;DHT22;11798;51.528;7.240;2023-02-15T01:30:31;2.80;99.90
23259;DHT22;11798;51.528;7.240;2023-02-15T01:32:57;2.80;99.90
23259;DHT22;11798;51.528;7.240;2023-02-15T01:35:23;2.70;99.90
23259;DHT22;11798;51.528;7.240;2023-02-15T01:37:49;2.70;99.90
23259;DHT22;11798;51.528;7.240;2023-02-15T01:40:17;2.70;99.90
23259;DHT22;11798;51.528;7.240;2023-02-15T01:42:43;2.70;99.90
23259;DHT22;11798;51.528;7.240;2023-02-15T01:45:28;2.70;99.90
23259;DHT22;11798;51.528;7.240;2023-02-15T01:48:20;2.70;99.90
23259;DHT22;11798;51.528;7.240;2023-02-15T01:50:58;2.70;99.90
23259;DHT22;11798;51.528;7.240;2023-02-15T01:53:37;2.70;99.90
23259;DHT22;11798;51.528;7.240;2023-02-15T01:56:13;2.70;99.90
23259;DHT22;11798;51.528;7.240;2023-02-15T01:58:40;2.60;99.90
23259;DHT22;11798;51.528;7.240;2023-02-15T02:01:08;2.50;99.90
23259;DHT22;11798;51.528;7.240;2023-02-15T02:04:01;2.40;99.90
23259;DHT22;11798;51.528;7.240;2023-02-15T02:06:28;2.40;99.90
23259;DHT22;11798;51.528;7.240;2023-02-15T02:08:54;2.40;99.90
23259;DHT22;11798;51.528;7.240;2023-02-15T02:11:20;2.50;99.90
23259;DHT22;11798;51.528;7.240;2023-02-15T02:13:46;2.50;99.90
23259;DHT22;11798;51.528;7.240;2023-02-15T02:18:48;2.50;99.90
23259;DHT22;11798;51.528;7.240;2023-02-15T02:27:12;2.50;99.90
23259;DHT22;11798;51.528;7.240;2023-02-15T02:30:06;2.40;99.90
23259;DHT22;11798;51.528;7.240;2023-02-15T02:43:57;2.20;99.90
23259;DHT22;11798;51.528;7.240;2023-02-15T02:49:40;2.30;99.90
23259;DHT22;11798;51.528;7.240;2023-02-15T02:52:46;2.20;99.90
23259;DHT22;11798;51.528;7.240;2023-02-15T02:55:17;2.30;99.90
23259;DHT22;11798;51.528;7.240;2023-02-15T03:00:51;2.30;99.90
23259;DHT22;11798;51.528;7.240;2023-02-15T03:03:30;2.20;99.90
23259;DHT22;11798;51.528;7.240;2023-02-15T03:06:05;2.20;99.90
23259;DHT22;11798;51.528;7.240;2023-02-15T03:08:42;2.20;99.90
23259;DHT22;11798;51.528;7.240;2023-02-15T03:11:09;2.10;99.90
23259;DHT22;11798;51.528;7.240;2023-02-15T03:13:36;2.10;99.90
23259;DHT22;11798;51.528;7.240;2023-02-15T03:16:03;1.90;99.90
23259;DHT22;11798;51.528;7.240;2023-02-15T03:18:53;1.90;99.90
23259;DHT22;11798;51.528;7.240;2023-02-15T03:21:30;1.90;99.90
23259;DHT22;11798;51.528;7.240;2023-02-15T03:24:15;1.90;99.90
23259;DHT22;11798;51.528;7.240;2023-02-15T03:26:46;2.00;99.90
23259;DHT22;11798;51.528;7.240;2023-02-15T03:29:12;2.00;99.90
23259;DHT22;11798;51.528;7.240;2023-02-15T03:31:41;2.10;99.90
23259;DHT22;11798;51.528;7.240;2023-02-15T03:34:11;2.10;99.90
23259;DHT22;11798;51.528;7.240;2023-02-15T03:36:50;2.10;99.90
23259;DHT22;11798;51.528;7.240;2023-02-15T03:39:32;2.00;99.90
23259;DHT22;11798;51.528;7.240;2023-02-15T03:42:25;2.00;99.90
23259;DHT22;11798;51.528;7.240;2023-02-15T03:45:03;2.00;99.90
23259;DHT22;11798;51.528;7.240;2023-02-15T03:47:41;1.90;99.90
23259;DHT22;11798;51.528;7.240;2023-02-15T03:52:58;1.90;99.90
23259;DHT22;11798;51.528;7.240;2023-02-15T03:55:25;1.90;99.90
23259;DHT22;11798;51.528;7.240;2023-02-15T03:57:51;1.80;99.90
23259;DHT22;11798;51.528;7.240;2023-02-15T04:00:38;1.80;99.90
23259;DHT22;11798;51.528;7.240;2023-02-15T04:03:32;1.80;99.90
23259;DHT22;11798;51.528;7.240;2023-02-15T04:06:01;1.80;99.90
23259;DHT22;11798;51.528;7.240;2023-02-15T04:08:28;1.70;99.90
23259;DHT22;11798;51.528;7.240;2023-02-15T04:11:11;1.80;99.90
23259;DHT22;11798;51.528;7.240;2023-02-15T04:13:37;1.80;99.90
23259;DHT22;11798;51.528;7.240;2023-02-15T04:16:03;1.80;99.90
23259;DHT22;11798;51.528;7.240;2023-02-15T04:18:47;1.80;99.90
23259;DHT22;11798;51.528;7.240;2023-02-15T04:21:32;1.70;99.90
23259;DHT22;11798;51.528;7.240;2023-02-15T04:24:16;1.70;99.90
23259;DHT22;11798;51.528;7.240;2023-02-15T04:27:00;1.80;99.90
23259;DHT22;11798;51.528;7.240;2023-02-15T04:29:28;1.80;99.90
23259;DHT22;11798;51.528;7.240;2023-02-15T04:31:56;1.80;99.90
23259;DHT22;11798;51.528;7.240;2023-02-15T04:34:22;1.80;99.90
23259;DHT22;11798;51.528;7.240;2023-02-15T04:36:47;1.70;99.90
23259;DHT22;11798;51.528;7.240;2023-02-15T04:39:14;1.70;99.90
23259;DHT22;11798;51.528;7.240;2023-02-15T04:41:40;1.70;99.90
23259;DHT22;11798;51.528;7.240;2023-02-15T04:44:07;1.70;99.90
23259;DHT22;11798;51.528;7.240;2023-02-15T04:46:33;1.70;99.90
23259;DHT22;11798;51.528;7.240;2023-02-15T04:48:58;1.70;99.90
23259;DHT22;11798;51.528;7.240;2023-02-15T04:51:24;1.80;99.90
23259;DHT22;11798;51.528;7.240;2023-02-15T04:53:50;1.80;99.90
23259;DHT22;11798;51.528;7.240;2023-02-15T04:56:18;1.80;99.90
23259;DHT22;11798;51.528;7.240;2023-02-15T04:58:44;1.80;99.90
23259;DHT22;11798;51.528;7.240;2023-02-15T05:01:10;1.70;99.90
23259;DHT22;11798;51.528;7.240;2023-02-15T05:03:36;1.70;99.90
23259;DHT22;11798;51.528;7.240;2023-02-15T05:06:02;1.70;99.90
23259;DHT22;11798;51.528;7.240;2023-02-15T05:08:28;1.60;99.90
23259;DHT22;11798;51.528;7.240;2023-02-15T05:10:53;1.60;99.90
23259;DHT22;11798;51.528;7.240;2023-02-15T05:13:19;1.70;99.90
23259;DHT22;11798;51.528;7.240;2023-02-15T05:15:49;1.70;99.90
23259;DHT22;11798;51.528;7.240;2023-02-15T05:18:15;1.70;99.90
23259;DHT22;11798;51.528;7.240;2023-02-15T05:20:41;1.70;99.90
23259;DHT22;11798;51.528;7.240;2023-02-15T05:23:07;1.70;99.90
23259;DHT22;11798;51.528;7.240;2023-02-15T05:25:32;1.70;99.90
23259;DHT22;11798;51.528;7.240;2023-02-15T05:28:16;1.70;99.90
23259;DHT22;11798;51.528;7.240;2023-02-15T05:31:05;1.70;99.90
23259;DHT22;11798;51.528;7.240;2023-02-15T05:33:31;1.70;99.90
23259;DHT22;11798;51.528;7.240;2023-02-15T05:35:57;1.70;99.90
23259;DHT22;11798;51.528;7.240;2023-02-15T05:38:22;1.50;99.90
23259;DHT22;11798;51.528;7.240;2023-02-15T05:40:49;1.50;99.90
23259;DHT22;11798;51.528;7.240;2023-02-15T05:43:15;1.50;99.90
23259;DHT22;11798;51.528;7.240;2023-02-15T05:45:47;1.50;99.90
23259;DHT22;11798;51.528;7.240;2023-02-15T05:48:14;1.50;99.90
23259;DHT22;11798;51.528;7.240;2023-02-15T05:50:39;1.50;99.90
23259;DHT22;11798;51.528;7.240;2023-02-15T05:53:05;1.50;99.90
23259;DHT22;11798;51.528;7.240;2023-02-15T05:55:30;1.60;99.90
23259;DHT22;11798;51.528;7.240;2023-02-15T05:57:56;1.60;99.90
23259;DHT22;11798;51.528;7.240;2023-02-15T06:00:22;1.60;99.90
23259;DHT22;11798;51.528;7.240;2023-02-15T06:02:47;1.50;99.90
23259;DHT22;11798;51.528;7.240;2023-02-15T06:05:13;1.60;99.90
23259;DHT22;11798;51.528;7.240;2023-02-15T06:07:39;1.60;99.90
23259;DHT22;11798;51.528;7.240;2023-02-15T06:10:05;1.60;99.90
23259;DHT22;11798;51.528;7.240;2023-02-15T06:12:31;1.60;99.90
23259;DHT22;11798;51.528;7.240;2023-02-15T06:14:56;1.60;99.90
23259;DHT22;11798;51.528;7.240;2023-02-15T06:17:22;1.60;99.90
23259;DHT22;11798;51.528;7.240;2023-02-15T06:19:48;1.70;99.90
23259;DHT22;11798;51.528;7.240;2023-02-15T06:22:13;1.70;99.90
23259;DHT22;11798;51.528;7.240;2023-02-15T06:24:39;1.60;99.90
23259;DHT22;11798;51.528;7.240;2023-02-15T06:27:08;1.60;99.90
23259;DHT22;11798;51.528;7.240;2023-02-15T06:29:34;1.50;99.90
23259;DHT22;11798;51.528;7.240;2023-02-15T06:32:00;1.60;99.90
23259;DHT22;11798;51.528;7.240;2023-02-15T06:34:25;1.60;99.90
23259;DHT22;11798;51.528;7.240;2023-02-15T06:36:51;1.60;99.90
23259;DHT22;11798;51.528;7.240;2023-02-15T06:39:16;1.50;99.90
23259;DHT22;11798;51.528;7.240;2023-02-15T06:41:42;1.50;99.90
23259;DHT22;11798;51.528;7.240;2023-02-15T06:44:08;1.50;99.90
23259;DHT22;11798;51.528;7.240;2023-02-15T06:46:33;1.50;99.90
23259;DHT22;11798;51.528;7.240;2023-02-15T06:48:59;1.40;99.90
23259;DHT22;11798;51.528;7.240;2023-02-15T06:51:24;1.40;99.90
23259;DHT22;11798;51.528;7.240;2023-02-15T06:53:50;1.40;99.90
23259;DHT22;11798;51.528;7.240;2023-02-15T06:56:16;1.40;99.90
23259;DHT22;11798;51.528;7.240;2023-02-15T06:58:42;1.50;99.90
23259;DHT22;11798;51.528;7.240;2023-02-15T07:01:08;1.50;99.90
23259;DHT22;11798;51.528;7.240;2023-02-15T07:03:35;1.40;99.90
23259;DHT22;11798;51.528;7.240;2023-02-15T07:06:02;1.50;99.90
23259;DHT22;11798;51.528;7.240;2023-02-15T07:08:29;1.50;99.90
23259;DHT22;11798;51.528;7.240;2023-02-15T07:10:55;1.50;99.90
23259;DHT22;11798;51.528;7.240;2023-02-15T07:13:44;1.50;99.90
23259;DHT22;11798;51.528;7.240;2023-02-15T07:16:09;1.60;99.90
23259;DHT22;11798;51.528;7.240;2023-02-15T07:18:35;1.60;99.90
23259;DHT22;11798;51.528;7.240;2023-02-15T07:21:01;1.60;99.90
23259;DHT22;11798;51.528;7.240;2023-02-15T07:23:27;1.70;99.90
23259;DHT22;11798;51.528;7.240;2023-02-15T07:25:59;1.70;99.90
23259;DHT22;11798;51.528;7.240;2023-02-15T07:28:25;1.70;99.90
23259;DHT22;11798;51.528;7.240;2023-02-15T07:30:51;1.80;99.90
23259;DHT22;11798;51.528;7.240;2023-02-15T07:33:17;1.80;99.90
23259;DHT22;11798;51.528;7.240;2023-02-15T07:35:54;1.80;99.90
23259;DHT22;11798;51.528;7.240;2023-02-15T07:38:20;1.80;99.90
23259;DHT22;11798;51.528;7.240;2023-02-15T07:40:46;1.80;99.90
23259;DHT22;11798;51.528;7.240;2023-02-15T07:43:13;2.00;99.90
23259;DHT22;11798;51.528;7.240;2023-02-15T07:45:39;2.00;99.90
23259;DHT22;11798;51.528;7.240;2023-02-15T07:48:06;2.00;99.90
23259;DHT22;11798;51.528;7.240;2023-02-15T07:50:33;2.10;99.90
23259;DHT22;11798;51.528;7.240;2023-02-15T07:53:01;2.10;99.90
23259;DHT22;11798;51.528;7.240;2023-02-15T07:55:27;2.20;99.90
23259;DHT22;11798;51.528;7.240;2023-02-15T07:57:53;2.30;99.90
23259;DHT22;11798;51.528;7.240;2023-02-15T08:00:20;2.40;99.90
23259;DHT22;11798;51.528;7.240;2023-02-15T08:02:51;2.40;99.90
23259;DHT22;11798;51.528;7.240;2023-02-15T08:05:41;2.50;99.90
23259;DHT22;11798;51.528;7.240;2023-02-15T08:08:08;2.60;99.90
23259;DHT22;11798;51.528;7.240;2023-02-15T08:10:35;2.60;99.90
23259;DHT22;11798;51.528;7.240;2023-02-15T08:13:19;2.70;99.90
23259;DHT22;11798;51.528;7.240;2023-02-15T08:15:51;2.80;99.90
23259;DHT22;11798;51.528;7.240;2023-02-15T08:18:17;2.90;99.90
23259;DHT22;11798;51.528;7.240;2023-02-15T08:20:42;2.80;99.90
23259;DHT22;11798;51.528;7.240;2023-02-15T08:23:13;2.90;99.90
23259;DHT22;11798;51.528;7.240;2023-02-15T08:25:39;3.00;99.90
23259;DHT22;11798;51.528;7.240;2023-02-15T08:28:04;3.00;99.90
23259;DHT22;11798;51.528;7.240;2023-02-15T08:30:30;3.10;99.90
23259;DHT22;11798;51.528;7.240;2023-02-15T08:32:56;3.20;99.90
23259;DHT22;11798;51.528;7.240;2023-02-15T08:35:21;3.30;99.90
23259;DHT22;11798;51.528;7.240;2023-02-15T08:37:47;3.30;99.90
23259;DHT22;11798;51.528;7.240;2023-02-15T08:40:12;3.50;99.90
23259;DHT22;11798;51.528;7.240;2023-02-15T08:42:39;3.50;99.90
23259;DHT22;11798;51.528;7.240;2023-02-15T08:45:04;3.60;99.90
23259;DHT22;11798;51.528;7.240;2023-02-15T08:47:30;3.60;99.90
23259;DHT22;11798;51.528;7.240;2023-02-15T08:49:56;3.70;99.90
23259;DHT22;11798;51.528;7.240;2023-02-15T08:52:21;3.90;99.90
23259;DHT22;11798;51.528;7.240;2023-02-15T08:54:47;4.00;99.90
23259;DHT22;11798;51.528;7.240;2023-02-15T08:57:13;4.10;99.90
23259;DHT22;11798;51.528;7.240;2023-02-15T08:59:38;4.20;99.90
23259;DHT22;11798;51.528;7.240;2023-02-15T09:02:04;4.40;99.90
23259;DHT22;11798;51.528;7.240;2023-02-15T09:04:29;4.50;99.90
23259;DHT22;11798;51.528;7.240;2023-02-15T09:06:55;4.60;99.90
23259;DHT22;11798;51.528;7.240;2023-02-15T09:09:21;4.80;99.90
23259;DHT22;11798;51.528;7.240;2023-02-15T09:11:49;4.90;99.90
23259;DHT22;11798;51.528;7.240;2023-02-15T09:14:17;5.10;99.90
23259;DHT22;11798;51.528;7.240;2023-02-15T09:16:46;5.20;99.90
23259;DHT22;11798;51.528;7.240;2023-02-15T09:19:15;5.40;99.90
23259;DHT22;11798;51.528;7.240;2023-02-15T09:21:41;5.50;99.90
23259;DHT22;11798;51.528;7.240;2023-02-15T09:24:09;5.60;99.90
23259;DHT22;11798;51.528;7.240;2023-02-15T09:26:37;5.70;99.90
23259;DHT22;11798;51.528;7.240;2023-02-15T09:29:06;5.90;99.90
23259;DHT22;11798;51.528;7.240;2023-02-15T09:31:40;6.10;99.90
23259;DHT22;11798;51.528;7.240;2023-02-15T09:34:11;6.20;99.90
23259;DHT22;11798;51.528;7.240;2023-02-15T09:36:38;6.30;99.90
23259;DHT22;11798;51.528;7.240;2023-02-15T09:39:17;6.40;99.90
23259;DHT22;11798;51.528;7.240;2023-02-15T09:53:39;7.10;99.90
23259;DHT22;11798;51.528;7.240;2023-02-15T10:06:59;7.70;99.90
23259;DHT22;11798;51.528;7.240;2023-02-15T10:26:20;8.50;99.90
23259;DHT22;11798;51.528;7.240;2023-02-15T10:31:49;8.70;99.90
23259;DHT22;11798;51.528;7.240;2023-02-15T10:34:38;8.90;99.90
23259;DHT22;11798;51.528;7.240;2023-02-15T10:42:57;9.20;99.90
23259;DHT22;11798;51.528;7.240;2023-02-15T10:48:20;9.50;99.90
23259;DHT22;11798;51.528;7.240;2023-02-15T10:50:51;9.60;99.90
23259;DHT22;11798;51.528;7.240;2023-02-15T10:56:25;9.90;99.90
23259;DHT22;11798;51.528;7.240;2023-02-15T11:01:48;10.20;99.90
23259;DHT22;11798;51.528;7.240;2023-02-15T11:07:29;10.30;99.90
23259;DHT22;11798;51.528;7.240;2023-02-15T11:12:31;10.60;99.90
23259;DHT22;11798;51.528;7.240;2023-02-15T11:17:42;10.60;99.90
23259;DHT22;11798;51.528;7.240;2023-02-15T11:22:41;10.90;99.90
23259;DHT22;11798;51.528;7.240;2023-02-15T11:25:19;10.90;99.90
23259;DHT22;11798;51.528;7.240;2023-02-15T11:27:48;10.90;99.90
23259;DHT22;11798;51.528;7.240;2023-02-15T11:30:19;11.00;99.90
23259;DHT22;11798;51.528;7.240;2023-02-15T11:32:47;11.10;99.90
23259;DHT22;11798;51.528;7.240;2023-02-15T11:35:47;11.10;99.90
23259;DHT22;11798;51.528;7.240;2023-02-15T11:38:17;11.20;99.90
23259;DHT22;11798;51.528;7.240;2023-02-15T11:41:08;11.40;99.90
23259;DHT22;11798;51.528;7.240;2023-02-15T11:46:00;11.40;99.90
23259;DHT22;11798;51.528;7.240;2023-02-15T11:48:29;11.50;99.90
23259;DHT22;11798;51.528;7.240;2023-02-15T11:50:56;11.60;99.90
23259;DHT22;11798;51.528;7.240;2023-02-15T11:53:22;11.70;99.90
23259;DHT22;11798;51.528;7.240;2023-02-15T11:55:54;11.70;99.90
23259;DHT22;11798;51.528;7.240;2023-02-15T11:58:45;11.80;99.90
23259;DHT22;11798;51.528;7.240;2023-02-15T12:06:15;12.00;99.90
23259;DHT22;11798;51.528;7.240;2023-02-15T12:08:48;12.00;99.90
23259;DHT22;11798;51.528;7.240;2023-02-15T12:11:20;12.00;99.90
23259;DHT22;11798;51.528;7.240;2023-02-15T12:13:59;12.10;99.90
23259;DHT22;11798;51.528;7.240;2023-02-15T12:16:26;12.00;99.90
23259;DHT22;11798;51.528;7.240;2023-02-15T12:18:55;12.10;99.90
23259;DHT22;11798;51.528;7.240;2023-02-15T12:21:39;12.10;99.90
23259;DHT22;11798;51.528;7.240;2023-02-15T12:24:19;12.20;99.90
23259;DHT22;11798;51.528;7.240;2023-02-15T12:27:02;12.20;99.90
23259;DHT22;11798;51.528;7.240;2023-02-15T12:29:56;12.20;99.90
23259;DHT22;11798;51.528;7.240;2023-02-15T12:32:26;12.20;99.90
23259;DHT22;11798;51.528;7.240;2023-02-15T12:34:55;12.30;99.90
23259;DHT22;11798;51.528;7.240;2023-02-15T12:37:28;12.30;99.90
23259;DHT22;11798;51.528;7.240;2023-02-15T12:39:59;12.40;99.90
23259;DHT22;11798;51.528;7.240;2023-02-15T12:42:26;12.30;99.90
23259;DHT22;11798;51.528;7.240;2023-02-15T12:45:04;12.30;99.90
23259;DHT22;11798;51.528;7.240;2023-02-15T12:47:44;12.40;99.90
23259;DHT22;11798;51.528;7.240;2023-02-15T12:50:22;12.30;99.90
23259;DHT22;11798;51.528;7.240;2023-02-15T12:52:50;12.40;99.90
23259;DHT22;11798;51.528;7.240;2023-02-15T12:55:25;12.40;99.90
23259;DHT22;11798;51.528;7.240;2023-02-15T12:58:16;12.50;99.90
23259;DHT22;11798;51.528;7.240;2023-02-15T13:00:43;12.50;99.90
23259;DHT22;11798;51.528;7.240;2023-02-15T13:03:19;12.50;99.90
23259;DHT22;11798;51.528;7.240;2023-02-15T13:05:50;12.50;99.90
23259;DHT22;11798;51.528;7.240;2023-02-15T13:08:20;12.50;99.90
23259;DHT22;11798;51.528;7.240;2023-02-15T13:13:22;12.50;99.90
23259;DHT22;11798;51.528;7.240;2023-02-15T13:15:54;12.60;99.90
23259;DHT22;11798;51.528;7.240;2023-02-15T13:18:30;12.60;99.90
23259;DHT22;11798;51.528;7.240;2023-02-15T13:20:57;12.60;99.90
23259;DHT22;11798;51.528;7.240;2023-02-15T13:23:28;12.60;99.90
23259;DHT22;11798;51.528;7.240;2023-02-15T13:25:58;12.60;99.90
23259;DHT22;11798;51.528;7.240;2023-02-15T13:28:41;12.60;99.90
23259;DHT22;11798;51.528;7.240;2023-02-15T13:31:15;12.60;99.90
23259;DHT22;11798;51.528;7.240;2023-02-15T13:33:53;12.50;99.90
23259;DHT22;11798;51.528;7.240;2023-02-15T13:50:48;12.50;99.90
23259;DHT22;11798;51.528;7.240;2023-02-15T13:55:57;12.50;99.90
23259;DHT22;11798;51.528;7.240;2023-02-15T13:58:30;12.60;99.90
23259;DHT22;11798;51.528;7.240;2023-02-15T14:01:08;12.60;99.90
23259;DHT22;11798;51.528;7.240;2023-02-15T14:11:29;12.60;99.90
23259;DHT22;11798;51.528;7.240;2023-02-15T14:14:11;12.60;99.90
23259;DHT22;11798;51.528;7.240;2023-02-15T14:17:09;12.60;99.90
23259;DHT22;11798;51.528;7.240;2023-02-15T14:19:48;12.60;99.90
23259;DHT22;11798;51.528;7.240;2023-02-15T14:30:21;12.70;99.90
23259;DHT22;11798;51.528;7.240;2023-02-15T14:32:52;12.70;99.90
23259;DHT22;11798;51.528;7.240;2023-02-15T14:35:21;12.70;99.90
23259;DHT22;11798;51.528;7.240;2023-02-15T14:40:51;12.70;99.90
23259;DHT22;11798;51.528;7.240;2023-02-15T14:49:15;12.60;99.90
23259;DHT22;11798;51.528;7.240;2023-02-15T14:54:10;12.60;99.90
23259;DHT22;11798;51.528;7.240;2023-02-15T14:56:36;12.50;99.90
23259;DHT22;11798;51.528;7.240;2023-02-15T14:59:19;12.50;99.90
23259;DHT22;11798;51.528;7.240;2023-02-15T15:01:55;12.50;99.90
23259;DHT22;11798;51.528;7.240;2023-02-15T15:09:30;12.40;99.90
23259;DHT22;11798;51.528;7.240;2023-02-15T15:14:54;12.30;99.90
23259;DHT22;11798;51.528;7.240;2023-02-15T15:45:34;12.10;99.90
23259;DHT22;11798;51.528;7.240;2023-02-15T15:51:00;12.00;99.90
23259;DHT22;11798;51.528;7.240;2023-02-15T15:53:29;12.00;99.90
23259;DHT22;11798;51.528;7.240;2023-02-15T15:56:02;11.90;99.90
23259;DHT22;11798;51.528;7.240;2023-02-15T15:58:30;11.90;99.90
23259;DHT22;11798;51.528;7.240;2023-02-15T16:01:10;11.80;99.90
23259;DHT22;11798;51.528;7.240;2023-02-15T16:03:41;11.80;99.90
23259;DHT22;11798;51.528;7.240;2023-02-15T16:06:37;11.80;99.90
23259;DHT22;11798;51.528;7.240;2023-02-15T16:09:15;11.70;99.90
23259;DHT22;11798;51.528;7.240;2023-02-15T16:11:41;11.60;99.90
23259;DHT22;11798;51.528;7.240;2023-02-15T16:14:16;11.50;99.90
23259;DHT22;11798;51.528;7.240;2023-02-15T16:16:50;11.30;99.90
23259;DHT22;11798;51.528;7.240;2023-02-15T16:19:34;11.10;99.90
23259;DHT22;11798;51.528;7.240;2023-02-15T16:22:02;11.00;99.90
23259;DHT22;11798;51.528;7.240;2023-02-15T16:24:39;10.90;99.90
23259;DHT22;11798;51.528;7.240;2023-02-15T16:29:37;10.80;99.90
23259;DHT22;11798;51.528;7.240;2023-02-15T16:32:24;10.60;99.90
23259;DHT22;11798;51.528;7.240;2023-02-15T16:37:18;10.50;99.90
23259;DHT22;11798;51.528;7.240;2023-02-15T16:39:46;10.40;99.90
23259;DHT22;11798;51.528;7.240;2023-02-15T16:42:15;10.40;99.90
23259;DHT22;11798;51.528;7.240;2023-02-15T16:44:41;10.30;99.90
23259;DHT22;11798;51.528;7.240;2023-02-15T16:47:25;10.10;99.90
23259;DHT22;11798;51.528;7.240;2023-02-15T16:49:54;10.00;99.90
23259;DHT22;11798;51.528;7.240;2023-02-15T16:52:24;9.90;99.90
23259;DHT22;11798;51.528;7.240;2023-02-15T16:55:04;9.80;99.90
23259;DHT22;11798;51.528;7.240;2023-02-15T16:57:36;9.70;99.90
23259;DHT22;11798;51.528;7.240;2023-02-15T17:00:17;9.60;99.90
23259;DHT22;11798;51.528;7.240;2023-02-15T17:02:54;9.40;99.90
23259;DHT22;11798;51.528;7.240;2023-02-15T17:05:21;9.30;99.90
23259;DHT22;11798;51.528;7.240;2023-02-15T17:10:39;9.20;99.90
23259;DHT22;11798;51.528;7.240;2023-02-15T17:13:15;9.10;99.90
23259;DHT22;11798;51.528;7.240;2023-02-15T17:18:31;8.90;99.90
23259;DHT22;11798;51.528;7.240;2023-02-15T17:21:13;8.90;99.90
23259;DHT22;11798;51.528;7.240;2023-02-15T17:23:46;8.80;99.90
23259;DHT22;11798;51.528;7.240;2023-02-15T17:31:20;8.60;99.90
23259;DHT22;11798;51.528;7.240;2023-02-15T17:33:47;8.60;99.90
23259;DHT22;11798;51.528;7.240;2023-02-15T17:36:20;8.50;99.90
23259;DHT22;11798;51.528;7.240;2023-02-15T17:41:23;8.40;99.90
23259;DHT22;11798;51.528;7.240;2023-02-15T17:43:49;8.40;99.90
23259;DHT22;11798;51.528;7.240;2023-02-15T17:46:15;8.40;99.90
23259;DHT22;11798;51.528;7.240;2023-02-15T17:48:46;8.20;99.90
23259;DHT22;11798;51.528;7.240;2023-02-15T17:51:13;8.20;99.90
23259;DHT22;11798;51.528;7.240;2023-02-15T17:53:39;8.20;99.90
23259;DHT22;11798;51.528;7.240;2023-02-15T17:56:05;8.20;99.90
23259;DHT22;11798;51.528;7.240;2023-02-15T17:58:39;8.10;99.90
23259;DHT22;11798;51.528;7.240;2023-02-15T18:01:15;8.00;99.90
23259;DHT22;11798;51.528;7.240;2023-02-15T18:04:01;8.00;99.90
23259;DHT22;11798;51.528;7.240;2023-02-15T18:06:45;8.00;99.90
23259;DHT22;11798;51.528;7.240;2023-02-15T18:09:29;7.90;99.90
23259;DHT22;11798;51.528;7.240;2023-02-15T18:12:22;7.80;99.90
23259;DHT22;11798;51.528;7.240;2023-02-15T18:14:49;7.70;99.90
23259;DHT22;11798;51.528;7.240;2023-02-15T18:17:16;7.70;99.90
23259;DHT22;11798;51.528;7.240;2023-02-15T18:19:43;7.60;99.90
23259;DHT22;11798;51.528;7.240;2023-02-15T18:22:15;7.60;99.90
23259;DHT22;11798;51.528;7.240;2023-02-15T18:24:42;7.60;99.90
23259;DHT22;11798;51.528;7.240;2023-02-15T18:27:11;7.50;99.90
23259;DHT22;11798;51.528;7.240;2023-02-15T18:29:37;7.50;99.90
23259;DHT22;11798;51.528;7.240;2023-02-15T18:32:05;7.50;99.90
23259;DHT22;11798;51.528;7.240;2023-02-15T18:34:34;7.40;99.90
23259;DHT22;11798;51.528;7.240;2023-02-15T18:37:03;7.40;99.90
23259;DHT22;11798;51.528;7.240;2023-02-15T18:39:44;7.30;99.90
23259;DHT22;11798;51.528;7.240;2023-02-15T18:42:33;7.30;99.90
23259;DHT22;11798;51.528;7.240;2023-02-15T18:45:19;7.30;99.90
23259;DHT22;11798;51.528;7.240;2023-02-15T18:47:46;7.20;99.90
23259;DHT22;11798;51.528;7.240;2023-02-15T18:50:14;7.30;99.90
23259;DHT22;11798;51.528;7.240;2023-02-15T18:52:40;7.20;99.90
23259;DHT22;11798;51.528;7.240;2023-02-15T18:55:23;7.20;99.90
23259;DHT22;11798;51.528;7.240;2023-02-15T18:57:51;7.10;99.90
23259;DHT22;11798;51.528;7.240;2023-02-15T19:00:22;7.10;99.90
23259;DHT22;11798;51.528;7.240;2023-02-15T19:02:50;7.10;99.90
23259;DHT22;11798;51.528;7.240;2023-02-15T19:05:15;7.00;99.90
23259;DHT22;11798;51.528;7.240;2023-02-15T19:07:43;6.90;99.90
23259;DHT22;11798;51.528;7.240;2023-02-15T19:10:15;7.00;99.90
23259;DHT22;11798;51.528;7.240;2023-02-15T19:12:42;7.00;99.90
23259;DHT22;11798;51.528;7.240;2023-02-15T19:15:21;7.00;99.90
23259;DHT22;11798;51.528;7.240;2023-02-15T19:17:47;6.90;99.90
23259;DHT22;11798;51.528;7.240;2023-02-15T19:22:41;6.90;99.90
23259;DHT22;11798;51.528;7.240;2023-02-15T19:25:18;6.90;99.90
23259;DHT22;11798;51.528;7.240;2023-02-15T19:27:44;6.80;99.90
23259;DHT22;11798;51.528;7.240;2023-02-15T19:30:27;6.80;99.90
23259;DHT22;11798;51.528;7.240;2023-02-15T19:32:55;6.80;99.90
23259;DHT22;11798;51.528;7.240;2023-02-15T19:35:23;6.70;99.90